sensor_id;sensor_type;location;lat;lon;timestamp;P1;durP1;ratioP1;P2;durP2;ratioP2
10537;SDS011;5317;49.048;8.468;2023-06-26T00:02:11;7.07;;;6.00;;
10537;SDS011;5317;49.048;8.468;2023-06-26T00:04:38;6.10;;;5.50;;
10537;SDS011;5317;49.048;8.468;2023-06-26T00:07:13;5.70;;;5.20;;
10537;SDS011;5317;49.048;8.468;2023-06-26T00:09:39;6.37;;;5.50;;
10537;SDS011;5317;49.048;8.468;2023-06-26T00:12:09;6.17;;;5.57;;
10537;SDS011;5317;49.048;8.468;2023-06-26T00:14:36;5.70;;;5.17;;
10537;SDS011;5317;49.048;8.468;2023-06-26T00:17:03;5.97;;;5.23;;
10537;SDS011;5317;49.048;8.468;2023-06-26T00:19:33;6.37;;;5.20;;
10537;SDS011;5317;49.048;8.468;2023-06-26T00:24:59;5.87;;;5.33;;
10537;SDS011;5317;49.048;8.468;2023-06-26T00:27:26;6.63;;;5.60;;
10537;SDS011;5317;49.048;8.468;2023-06-26T00:29:53;6.10;;;5.50;;
10537;SDS011;5317;49.048;8.468;2023-06-26T00:32:20;6.53;;;5.90;;
10537;SDS011;5317;49.048;8.468;2023-06-26T00:34:47;7.03;;;6.00;;
10537;SDS011;5317;49.048;8.468;2023-06-26T00:37:14;6.93;;;6.23;;
10537;SDS011;5317;49.048;8.468;2023-06-26T00:39:45;6.10;;;5.50;;
10537;SDS011;5317;49.048;8.468;2023-06-26T00:42:12;7.13;;;6.20;;
10537;SDS011;5317;49.048;8.468;2023-06-26T00:44:39;6.93;;;6.20;;
10537;SDS011;5317;49.048;8.468;2023-06-26T00:47:08;6.77;;;6.07;;
10537;SDS011;5317;49.048;8.468;2023-06-26T00:49:37;6.13;;;5.53;;
10537;SDS011;5317;49.048;8.468;2023-06-26T00:52:04;7.47;;;6.10;;
10537;SDS011;5317;49.048;8.468;2023-06-26T00:54:35;6.50;;;5.90;;
10537;SDS011;5317;49.048;8.468;2023-06-26T00:57:03;6.43;;;5.83;;
10537;SDS011;5317;49.048;8.468;2023-06-26T00:59:32;6.10;;;5.50;;
10537;SDS011;5317;49.048;8.468;2023-06-26T01:02:00;7.20;;;6.50;;
10537;SDS011;5317;49.048;8.468;2023-06-26T01:04:27;7.00;;;6.30;;
10537;SDS011;5317;49.048;8.468;2023-06-26T01:06:57;6.33;;;5.73;;
10537;SDS011;5317;49.048;8.468;2023-06-26T01:09:25;6.73;;;6.03;;
10537;SDS011;5317;49.048;8.468;2023-06-26T01:11:56;7.07;;;6.37;;
10537;SDS011;5317;49.048;8.468;2023-06-26T01:14:25;6.83;;;6.23;;
10537;SDS011;5317;49.048;8.468;2023-06-26T01:16:52;8.20;;;7.13;;
10537;SDS011;5317;49.048;8.468;2023-06-26T01:19:23;8.13;;;5.93;;
10537;SDS011;5317;49.048;8.468;2023-06-26T01:21:51;7.13;;;6.37;;
10537;SDS011;5317;49.048;8.468;2023-06-26T01:24:28;7.43;;;6.20;;
10537;SDS011;5317;49.048;8.468;2023-06-26T01:27:03;6.00;;;5.40;;
10537;SDS011;5317;49.048;8.468;2023-06-26T01:29:36;9.10;;;6.87;;
10537;SDS011;5317;49.048;8.468;2023-06-26T01:32:04;6.80;;;6.20;;
10537;SDS011;5317;49.048;8.468;2023-06-26T01:34:38;6.73;;;6.03;;
10537;SDS011;5317;49.048;8.468;2023-06-26T01:37:05;6.97;;;6.27;;
10537;SDS011;5317;49.048;8.468;2023-06-26T01:39:38;8.93;;;6.60;;
10537;SDS011;5317;49.048;8.468;2023-06-26T01:42:09;7.27;;;6.57;;
10537;SDS011;5317;49.048;8.468;2023-06-26T01:44:37;7.00;;;6.27;;
10537;SDS011;5317;49.048;8.468;2023-06-26T01:47:12;7.23;;;6.13;;
10537;SDS011;5317;49.048;8.468;2023-06-26T01:49:46;6.97;;;6.27;;
10537;SDS011;5317;49.048;8.468;2023-06-26T01:52:21;6.80;;;6.10;;
10537;SDS011;5317;49.048;8.468;2023-06-26T01:55:00;6.50;;;5.90;;
10537;SDS011;5317;49.048;8.468;2023-06-26T01:57:34;7.30;;;6.20;;
10537;SDS011;5317;49.048;8.468;2023-06-26T02:00:02;7.30;;;6.37;;
10537;SDS011;5317;49.048;8.468;2023-06-26T02:02:33;7.53;;;6.50;;
10537;SDS011;5317;49.048;8.468;2023-06-26T02:05:01;7.87;;;6.70;;
10537;SDS011;5317;49.048;8.468;2023-06-26T02:07:27;7.10;;;6.43;;
10537;SDS011;5317;49.048;8.468;2023-06-26T02:09:57;7.37;;;6.67;;
10537;SDS011;5317;49.048;8.468;2023-06-26T02:12:24;7.47;;;6.20;;
10537;SDS011;5317;49.048;8.468;2023-06-26T02:14:52;7.60;;;6.63;;
10537;SDS011;5317;49.048;8.468;2023-06-26T02:17:21;7.17;;;6.47;;
10537;SDS011;5317;49.048;8.468;2023-06-26T02:19:48;8.10;;;6.67;;
10537;SDS011;5317;49.048;8.468;2023-06-26T02:22:15;6.60;;;5.83;;
10537;SDS011;5317;49.048;8.468;2023-06-26T02:24:45;7.57;;;6.07;;
10537;SDS011;5317;49.048;8.468;2023-06-26T02:27:12;8.10;;;6.40;;
10537;SDS011;5317;49.048;8.468;2023-06-26T02:29:39;7.53;;;6.67;;
10537;SDS011;5317;49.048;8.468;2023-06-26T02:32:10;6.60;;;5.97;;
10537;SDS011;5317;49.048;8.468;2023-06-26T02:34:37;6.50;;;5.90;;
10537;SDS011;5317;49.048;8.468;2023-06-26T02:37:04;6.87;;;6.20;;
10537;SDS011;5317;49.048;8.468;2023-06-26T02:39:33;7.67;;;6.17;;
10537;SDS011;5317;49.048;8.468;2023-06-26T02:42:00;7.03;;;6.33;;
10537;SDS011;5317;49.048;8.468;2023-06-26T02:44:27;6.60;;;5.97;;
10537;SDS011;5317;49.048;8.468;2023-06-26T02:47:00;7.07;;;6.37;;
10537;SDS011;5317;49.048;8.468;2023-06-26T02:49:28;7.13;;;6.20;;
10537;SDS011;5317;49.048;8.468;2023-06-26T02:51:57;8.23;;;7.43;;
10537;SDS011;5317;49.048;8.468;2023-06-26T02:54:24;7.73;;;7.03;;
10537;SDS011;5317;49.048;8.468;2023-06-26T02:56:50;7.13;;;6.43;;
10537;SDS011;5317;49.048;8.468;2023-06-26T02:59:17;6.93;;;6.33;;
10537;SDS011;5317;49.048;8.468;2023-06-26T03:01:50;7.53;;;6.47;;
10537;SDS011;5317;49.048;8.468;2023-06-26T03:04:17;7.03;;;6.33;;
10537;SDS011;5317;49.048;8.468;2023-06-26T03:06:51;7.03;;;6.33;;
10537;SDS011;5317;49.048;8.468;2023-06-26T03:09:21;9.50;;;6.60;;
10537;SDS011;5317;49.048;8.468;2023-06-26T03:11:48;7.03;;;6.33;;
10537;SDS011;5317;49.048;8.468;2023-06-26T03:14:15;6.87;;;6.17;;
10537;SDS011;5317;49.048;8.468;2023-06-26T03:16:45;7.13;;;6.23;;
10537;SDS011;5317;49.048;8.468;2023-06-26T03:19:12;6.50;;;5.73;;
10537;SDS011;5317;49.048;8.468;2023-06-26T03:21:39;8.80;;;6.83;;
10537;SDS011;5317;49.048;8.468;2023-06-26T03:24:13;6.23;;;5.63;;
10537;SDS011;5317;49.048;8.468;2023-06-26T03:26:40;6.97;;;5.90;;
10537;SDS011;5317;49.048;8.468;2023-06-26T03:29:10;6.53;;;5.83;;
10537;SDS011;5317;49.048;8.468;2023-06-26T03:31:36;7.73;;;6.93;;
10537;SDS011;5317;49.048;8.468;2023-06-26T03:34:03;8.67;;;6.70;;
10537;SDS011;5317;49.048;8.468;2023-06-26T03:36:36;7.27;;;6.50;;
10537;SDS011;5317;49.048;8.468;2023-06-26T03:39:03;7.97;;;6.43;;
10537;SDS011;5317;49.048;8.468;2023-06-26T03:41:31;6.80;;;6.10;;
10537;SDS011;5317;49.048;8.468;2023-06-26T03:44:01;7.50;;;6.60;;
10537;SDS011;5317;49.048;8.468;2023-06-26T03:46:29;7.40;;;6.63;;
10537;SDS011;5317;49.048;8.468;2023-06-26T03:48:58;7.33;;;6.63;;
10537;SDS011;5317;49.048;8.468;2023-06-26T03:51:25;6.83;;;6.13;;
10537;SDS011;5317;49.048;8.468;2023-06-26T03:53:52;7.03;;;6.13;;
10537;SDS011;5317;49.048;8.468;2023-06-26T03:56:18;9.57;;;6.23;;
10537;SDS011;5317;49.048;8.468;2023-06-26T03:58:50;7.57;;;6.27;;
10537;SDS011;5317;49.048;8.468;2023-06-26T04:01:17;9.53;;;6.43;;
10537;SDS011;5317;49.048;8.468;2023-06-26T04:03:46;6.30;;;5.70;;
10537;SDS011;5317;49.048;8.468;2023-06-26T04:06:13;6.80;;;6.10;;
10537;SDS011;5317;49.048;8.468;2023-06-26T04:08:40;6.67;;;6.03;;
10537;SDS011;5317;49.048;8.468;2023-06-26T04:11:12;7.13;;;6.43;;
10537;SDS011;5317;49.048;8.468;2023-06-26T04:13:39;7.50;;;6.63;;
10537;SDS011;5317;49.048;8.468;2023-06-26T04:16:07;6.73;;;6.03;;
10537;SDS011;5317;49.048;8.468;2023-06-26T04:18:37;11.83;;;7.50;;
10537;SDS011;5317;49.048;8.468;2023-06-26T04:21:05;6.70;;;6.00;;
10537;SDS011;5317;49.048;8.468;2023-06-26T04:23:38;7.67;;;6.33;;
10537;SDS011;5317;49.048;8.468;2023-06-26T04:26:05;7.47;;;6.30;;
10537;SDS011;5317;49.048;8.468;2023-06-26T04:28:36;7.27;;;6.00;;
10537;SDS011;5317;49.048;8.468;2023-06-26T04:31:03;8.27;;;6.70;;
10537;SDS011;5317;49.048;8.468;2023-06-26T04:33:33;8.67;;;7.03;;
10537;SDS011;5317;49.048;8.468;2023-06-26T04:36:01;8.43;;;7.57;;
10537;SDS011;5317;49.048;8.468;2023-06-26T04:38:32;7.30;;;6.50;;
10537;SDS011;5317;49.048;8.468;2023-06-26T04:40:59;7.67;;;6.40;;
10537;SDS011;5317;49.048;8.468;2023-06-26T04:43:26;8.53;;;6.83;;
10537;SDS011;5317;49.048;8.468;2023-06-26T04:45:56;10.60;;;7.03;;
10537;SDS011;5317;49.048;8.468;2023-06-26T04:48:22;9.33;;;6.60;;
10537;SDS011;5317;49.048;8.468;2023-06-26T04:50:58;10.23;;;6.27;;
10537;SDS011;5317;49.048;8.468;2023-06-26T04:53:25;7.83;;;6.17;;
10537;SDS011;5317;49.048;8.468;2023-06-26T04:55:52;11.23;;;6.60;;
10537;SDS011;5317;49.048;8.468;2023-06-26T04:58:21;8.03;;;6.67;;
10537;SDS011;5317;49.048;8.468;2023-06-26T05:00:48;7.43;;;6.57;;
10537;SDS011;5317;49.048;8.468;2023-06-26T05:03:16;7.87;;;6.73;;
10537;SDS011;5317;49.048;8.468;2023-06-26T05:05:45;8.33;;;6.93;;
10537;SDS011;5317;49.048;8.468;2023-06-26T05:08:17;7.70;;;6.53;;
10537;SDS011;5317;49.048;8.468;2023-06-26T05:10:51;7.30;;;6.13;;
10537;SDS011;5317;49.048;8.468;2023-06-26T05:13:22;9.23;;;6.30;;
10537;SDS011;5317;49.048;8.468;2023-06-26T05:15:49;6.37;;;5.77;;
10537;SDS011;5317;49.048;8.468;2023-06-26T05:18:21;8.20;;;6.30;;
10537;SDS011;5317;49.048;8.468;2023-06-26T05:20:48;7.03;;;6.17;;
10537;SDS011;5317;49.048;8.468;2023-06-26T05:23:17;7.00;;;6.13;;
10537;SDS011;5317;49.048;8.468;2023-06-26T05:25:47;7.60;;;6.50;;
10537;SDS011;5317;49.048;8.468;2023-06-26T05:28:15;6.87;;;6.00;;
10537;SDS011;5317;49.048;8.468;2023-06-26T05:30:45;7.57;;;6.87;;
10537;SDS011;5317;49.048;8.468;2023-06-26T05:33:13;7.13;;;6.43;;
10537;SDS011;5317;49.048;8.468;2023-06-26T05:35:45;7.03;;;6.33;;
10537;SDS011;5317;49.048;8.468;2023-06-26T05:38:14;8.47;;;7.00;;
10537;SDS011;5317;49.048;8.468;2023-06-26T05:40:42;7.83;;;7.03;;
10537;SDS011;5317;49.048;8.468;2023-06-26T05:43:13;9.10;;;6.73;;
10537;SDS011;5317;49.048;8.468;2023-06-26T05:45:40;7.10;;;6.40;;
10537;SDS011;5317;49.048;8.468;2023-06-26T05:48:07;7.27;;;6.57;;
10537;SDS011;5317;49.048;8.468;2023-06-26T05:50:34;6.73;;;6.03;;
10537;SDS011;5317;49.048;8.468;2023-06-26T05:53:02;7.20;;;6.50;;
10537;SDS011;5317;49.048;8.468;2023-06-26T05:55:38;7.03;;;6.33;;
10537;SDS011;5317;49.048;8.468;2023-06-26T05:58:12;6.90;;;6.20;;
10537;SDS011;5317;49.048;8.468;2023-06-26T06:00:40;6.47;;;5.87;;
10537;SDS011;5317;49.048;8.468;2023-06-26T06:03:10;7.50;;;6.70;;
10537;SDS011;5317;49.048;8.468;2023-06-26T06:05:37;7.00;;;6.33;;
10537;SDS011;5317;49.048;8.468;2023-06-26T06:08:04;8.23;;;6.73;;
10537;SDS011;5317;49.048;8.468;2023-06-26T06:10:34;7.90;;;7.10;;
10537;SDS011;5317;49.048;8.468;2023-06-26T06:13:01;8.20;;;6.43;;
10537;SDS011;5317;49.048;8.468;2023-06-26T06:15:29;7.00;;;6.30;;
10537;SDS011;5317;49.048;8.468;2023-06-26T06:17:58;6.77;;;6.07;;
10537;SDS011;5317;49.048;8.468;2023-06-26T06:20:25;6.87;;;6.27;;
10537;SDS011;5317;49.048;8.468;2023-06-26T06:22:52;7.40;;;6.20;;
10537;SDS011;5317;49.048;8.468;2023-06-26T06:25:22;7.93;;;6.57;;
10537;SDS011;5317;49.048;8.468;2023-06-26T06:27:48;6.77;;;6.13;;
10537;SDS011;5317;49.048;8.468;2023-06-26T06:30:15;6.90;;;6.20;;
10537;SDS011;5317;49.048;8.468;2023-06-26T06:32:50;7.40;;;6.17;;
10537;SDS011;5317;49.048;8.468;2023-06-26T06:35:17;7.97;;;6.40;;
10537;SDS011;5317;49.048;8.468;2023-06-26T06:37:50;6.73;;;6.03;;
10537;SDS011;5317;49.048;8.468;2023-06-26T06:40:20;7.80;;;5.90;;
10537;SDS011;5317;49.048;8.468;2023-06-26T06:42:48;7.50;;;6.43;;
10537;SDS011;5317;49.048;8.468;2023-06-26T06:45:14;6.53;;;5.77;;
10537;SDS011;5317;49.048;8.468;2023-06-26T06:47:44;7.23;;;5.97;;
10537;SDS011;5317;49.048;8.468;2023-06-26T06:50:13;8.00;;;5.70;;
10537;SDS011;5317;49.048;8.468;2023-06-26T06:52:42;6.90;;;6.20;;
10537;SDS011;5317;49.048;8.468;2023-06-26T06:55:11;7.67;;;5.93;;
10537;SDS011;5317;49.048;8.468;2023-06-26T06:57:38;6.50;;;5.80;;
10537;SDS011;5317;49.048;8.468;2023-06-26T07:00:06;7.20;;;6.43;;
10537;SDS011;5317;49.048;8.468;2023-06-26T07:02:36;7.67;;;6.20;;
10537;SDS011;5317;49.048;8.468;2023-06-26T07:05:04;7.80;;;6.50;;
10537;SDS011;5317;49.048;8.468;2023-06-26T07:07:35;6.97;;;5.60;;
10537;SDS011;5317;49.048;8.468;2023-06-26T07:10:03;7.23;;;5.60;;
10537;SDS011;5317;49.048;8.468;2023-06-26T07:12:34;6.27;;;5.67;;
10537;SDS011;5317;49.048;8.468;2023-06-26T07:15:01;5.87;;;5.30;;
10537;SDS011;5317;49.048;8.468;2023-06-26T07:17:29;6.80;;;5.47;;
10537;SDS011;5317;49.048;8.468;2023-06-26T07:20:00;7.70;;;5.67;;
10537;SDS011;5317;49.048;8.468;2023-06-26T07:22:37;6.57;;;5.87;;
10537;SDS011;5317;49.048;8.468;2023-06-26T07:25:05;5.93;;;5.33;;
10537;SDS011;5317;49.048;8.468;2023-06-26T07:27:34;6.00;;;5.40;;
10537;SDS011;5317;49.048;8.468;2023-06-26T07:30:01;6.40;;;5.80;;
10537;SDS011;5317;49.048;8.468;2023-06-26T07:32:28;6.27;;;5.67;;
10537;SDS011;5317;49.048;8.468;2023-06-26T07:34:54;5.40;;;4.90;;
10537;SDS011;5317;49.048;8.468;2023-06-26T07:37:22;6.10;;;5.50;;
10537;SDS011;5317;49.048;8.468;2023-06-26T07:39:50;5.73;;;5.23;;
10537;SDS011;5317;49.048;8.468;2023-06-26T07:42:23;7.33;;;5.50;;
10537;SDS011;5317;49.048;8.468;2023-06-26T07:44:49;6.03;;;4.87;;
10537;SDS011;5317;49.048;8.468;2023-06-26T07:47:22;7.67;;;5.37;;
10537;SDS011;5317;49.048;8.468;2023-06-26T07:49:48;7.43;;;5.10;;
10537;SDS011;5317;49.048;8.468;2023-06-26T07:52:15;6.97;;;5.07;;
10537;SDS011;5317;49.048;8.468;2023-06-26T07:54:42;6.00;;;5.40;;
10537;SDS011;5317;49.048;8.468;2023-06-26T07:57:11;6.47;;;5.00;;
10537;SDS011;5317;49.048;8.468;2023-06-26T07:59:40;5.90;;;5.30;;
10537;SDS011;5317;49.048;8.468;2023-06-26T08:02:08;5.70;;;5.20;;
10537;SDS011;5317;49.048;8.468;2023-06-26T08:04:38;7.00;;;5.50;;
10537;SDS011;5317;49.048;8.468;2023-06-26T08:07:05;5.53;;;5.03;;
10537;SDS011;5317;49.048;8.468;2023-06-26T08:09:32;5.20;;;4.70;;
10537;SDS011;5317;49.048;8.468;2023-06-26T08:12:02;5.63;;;5.13;;
10537;SDS011;5317;49.048;8.468;2023-06-26T08:14:31;6.40;;;5.40;;
10537;SDS011;5317;49.048;8.468;2023-06-26T08:16:58;5.47;;;4.70;;
10537;SDS011;5317;49.048;8.468;2023-06-26T08:19:26;5.57;;;5.07;;
10537;SDS011;5317;49.048;8.468;2023-06-26T08:21:53;10.90;;;5.30;;
10537;SDS011;5317;49.048;8.468;2023-06-26T08:24:20;5.97;;;5.37;;
10537;SDS011;5317;49.048;8.468;2023-06-26T08:26:49;5.50;;;4.97;;
10537;SDS011;5317;49.048;8.468;2023-06-26T08:29:16;6.57;;;5.30;;
10537;SDS011;5317;49.048;8.468;2023-06-26T08:31:44;7.43;;;5.37;;
10537;SDS011;5317;49.048;8.468;2023-06-26T08:34:14;5.90;;;5.30;;
10537;SDS011;5317;49.048;8.468;2023-06-26T08:36:40;9.30;;;5.30;;
10537;SDS011;5317;49.048;8.468;2023-06-26T08:39:07;6.23;;;5.63;;
10537;SDS011;5317;49.048;8.468;2023-06-26T08:41:40;6.07;;;5.50;;
10537;SDS011;5317;49.048;8.468;2023-06-26T08:44:07;6.33;;;5.73;;
10537;SDS011;5317;49.048;8.468;2023-06-26T08:46:38;8.70;;;5.90;;
10537;SDS011;5317;49.048;8.468;2023-06-26T08:49:08;6.13;;;5.53;;
10537;SDS011;5317;49.048;8.468;2023-06-26T08:51:45;7.50;;;5.70;;
10537;SDS011;5317;49.048;8.468;2023-06-26T08:54:18;6.50;;;5.40;;
10537;SDS011;5317;49.048;8.468;2023-06-26T08:56:54;6.70;;;6.00;;
10537;SDS011;5317;49.048;8.468;2023-06-26T08:59:23;6.33;;;4.77;;
10537;SDS011;5317;49.048;8.468;2023-06-26T09:01:50;8.73;;;5.43;;
10537;SDS011;5317;49.048;8.468;2023-06-26T09:04:20;5.77;;;5.27;;
10537;SDS011;5317;49.048;8.468;2023-06-26T09:06:47;6.33;;;5.73;;
10537;SDS011;5317;49.048;8.468;2023-06-26T09:09:14;6.83;;;6.13;;
10537;SDS011;5317;49.048;8.468;2023-06-26T09:11:41;9.63;;;5.90;;
10537;SDS011;5317;49.048;8.468;2023-06-26T09:14:08;7.50;;;5.10;;
10537;SDS011;5317;49.048;8.468;2023-06-26T09:16:46;6.33;;;5.23;;
10537;SDS011;5317;49.048;8.468;2023-06-26T09:19:13;5.73;;;5.20;;
10537;SDS011;5317;49.048;8.468;2023-06-26T09:21:42;6.37;;;5.77;;
10537;SDS011;5317;49.048;8.468;2023-06-26T09:24:09;5.90;;;5.40;;
10537;SDS011;5317;49.048;8.468;2023-06-26T09:26:36;7.33;;;5.47;;
10537;SDS011;5317;49.048;8.468;2023-06-26T09:29:04;6.30;;;5.37;;
10537;SDS011;5317;49.048;8.468;2023-06-26T09:31:32;6.60;;;5.90;;
10537;SDS011;5317;49.048;8.468;2023-06-26T09:34:01;6.17;;;5.57;;
10537;SDS011;5317;49.048;8.468;2023-06-26T09:36:29;5.93;;;5.30;;
10537;SDS011;5317;49.048;8.468;2023-06-26T09:38:59;6.27;;;5.70;;
10537;SDS011;5317;49.048;8.468;2023-06-26T09:41:29;7.77;;;5.80;;
10537;SDS011;5317;49.048;8.468;2023-06-26T09:43:57;6.00;;;5.40;;
10537;SDS011;5317;49.048;8.468;2023-06-26T09:46:29;5.57;;;5.07;;
10537;SDS011;5317;49.048;8.468;2023-06-26T09:49:03;6.20;;;5.60;;
10537;SDS011;5317;49.048;8.468;2023-06-26T09:51:31;5.50;;;5.00;;
10537;SDS011;5317;49.048;8.468;2023-06-26T09:53:59;6.03;;;5.43;;
10537;SDS011;5317;49.048;8.468;2023-06-26T09:56:29;6.57;;;5.77;;
10537;SDS011;5317;49.048;8.468;2023-06-26T09:58:57;7.13;;;4.87;;
10537;SDS011;5317;49.048;8.468;2023-06-26T10:01:27;5.80;;;5.30;;
10537;SDS011;5317;49.048;8.468;2023-06-26T10:03:55;6.00;;;5.50;;
10537;SDS011;5317;49.048;8.468;2023-06-26T10:06:31;5.33;;;4.83;;
10537;SDS011;5317;49.048;8.468;2023-06-26T10:09:03;6.63;;;6.03;;
10537;SDS011;5317;49.048;8.468;2023-06-26T10:11:33;6.17;;;5.57;;
10537;SDS011;5317;49.048;8.468;2023-06-26T10:14:06;6.97;;;4.97;;
10537;SDS011;5317;49.048;8.468;2023-06-26T10:16:35;6.37;;;5.77;;
10537;SDS011;5317;49.048;8.468;2023-06-26T10:19:06;5.97;;;5.10;;
10537;SDS011;5317;49.048;8.468;2023-06-26T10:21:38;6.10;;;4.97;;
10537;SDS011;5317;49.048;8.468;2023-06-26T10:24:08;5.83;;;5.33;;
10537;SDS011;5317;49.048;8.468;2023-06-26T10:26:41;6.23;;;4.90;;
10537;SDS011;5317;49.048;8.468;2023-06-26T10:29:17;5.60;;;5.00;;
10537;SDS011;5317;49.048;8.468;2023-06-26T10:31:47;5.60;;;5.03;;
10537;SDS011;5317;49.048;8.468;2023-06-26T10:34:18;6.33;;;5.53;;
10537;SDS011;5317;49.048;8.468;2023-06-26T10:36:46;5.70;;;5.10;;
10537;SDS011;5317;49.048;8.468;2023-06-26T10:39:26;6.30;;;5.80;;
10537;SDS011;5317;49.048;8.468;2023-06-26T10:41:54;7.17;;;6.03;;
10537;SDS011;5317;49.048;8.468;2023-06-26T10:44:22;6.50;;;5.27;;
10537;SDS011;5317;49.048;8.468;2023-06-26T10:46:51;6.77;;;5.53;;
10537;SDS011;5317;49.048;8.468;2023-06-26T10:49:24;6.60;;;5.40;;
10537;SDS011;5317;49.048;8.468;2023-06-26T10:51:55;6.53;;;5.50;;
10537;SDS011;5317;49.048;8.468;2023-06-26T10:54:30;7.40;;;5.60;;
10537;SDS011;5317;49.048;8.468;2023-06-26T10:57:02;5.30;;;4.80;;
10537;SDS011;5317;49.048;8.468;2023-06-26T10:59:30;5.87;;;5.30;;
10537;SDS011;5317;49.048;8.468;2023-06-26T11:01:58;5.53;;;5.03;;
10537;SDS011;5317;49.048;8.468;2023-06-26T11:04:38;7.20;;;5.23;;
10537;SDS011;5317;49.048;8.468;2023-06-26T11:07:19;4.93;;;4.53;;
10537;SDS011;5317;49.048;8.468;2023-06-26T11:09:56;7.20;;;5.87;;
10537;SDS011;5317;49.048;8.468;2023-06-26T11:12:34;6.90;;;5.73;;
10537;SDS011;5317;49.048;8.468;2023-06-26T11:15:01;6.20;;;5.43;;
10537;SDS011;5317;49.048;8.468;2023-06-26T11:17:32;6.53;;;5.23;;
10537;SDS011;5317;49.048;8.468;2023-06-26T11:19:59;7.27;;;5.20;;
10537;SDS011;5317;49.048;8.468;2023-06-26T11:22:26;6.47;;;5.70;;
10537;SDS011;5317;49.048;8.468;2023-06-26T11:24:59;5.60;;;5.10;;
10537;SDS011;5317;49.048;8.468;2023-06-26T11:27:31;5.60;;;5.10;;
10537;SDS011;5317;49.048;8.468;2023-06-26T11:29:58;5.33;;;4.83;;
10537;SDS011;5317;49.048;8.468;2023-06-26T11:32:26;8.10;;;5.40;;
10537;SDS011;5317;49.048;8.468;2023-06-26T11:34:59;6.37;;;4.70;;
10537;SDS011;5317;49.048;8.468;2023-06-26T11:37:26;6.13;;;5.50;;
10537;SDS011;5317;49.048;8.468;2023-06-26T11:39:53;5.83;;;5.10;;
10537;SDS011;5317;49.048;8.468;2023-06-26T11:42:21;6.40;;;5.80;;
10537;SDS011;5317;49.048;8.468;2023-06-26T11:44:51;7.73;;;5.60;;
10537;SDS011;5317;49.048;8.468;2023-06-26T11:47:20;5.07;;;4.67;;
10537;SDS011;5317;49.048;8.468;2023-06-26T11:49:53;6.10;;;4.83;;
10537;SDS011;5317;49.048;8.468;2023-06-26T11:52:20;5.07;;;4.67;;
10537;SDS011;5317;49.048;8.468;2023-06-26T11:54:47;5.57;;;4.60;;
10537;SDS011;5317;49.048;8.468;2023-06-26T11:57:17;6.33;;;4.80;;
10537;SDS011;5317;49.048;8.468;2023-06-26T11:59:49;6.67;;;5.27;;
10537;SDS011;5317;49.048;8.468;2023-06-26T12:02:17;5.53;;;4.63;;
10537;SDS011;5317;49.048;8.468;2023-06-26T12:04:44;5.33;;;4.87;;
10537;SDS011;5317;49.048;8.468;2023-06-26T12:07:12;5.40;;;4.80;;
10537;SDS011;5317;49.048;8.468;2023-06-26T12:09:40;5.00;;;4.50;;
10537;SDS011;5317;49.048;8.468;2023-06-26T12:12:16;5.60;;;4.17;;
10537;SDS011;5317;49.048;8.468;2023-06-26T12:14:44;5.73;;;4.53;;
10537;SDS011;5317;49.048;8.468;2023-06-26T12:17:13;5.13;;;4.63;;
10537;SDS011;5317;49.048;8.468;2023-06-26T12:19:43;4.57;;;4.17;;
10537;SDS011;5317;49.048;8.468;2023-06-26T12:22:12;4.50;;;4.07;;
10537;SDS011;5317;49.048;8.468;2023-06-26T12:24:46;5.70;;;4.17;;
10537;SDS011;5317;49.048;8.468;2023-06-26T12:27:14;4.00;;;3.47;;
10537;SDS011;5317;49.048;8.468;2023-06-26T12:29:49;3.97;;;3.53;;
10537;SDS011;5317;49.048;8.468;2023-06-26T12:32:23;3.93;;;3.50;;
10537;SDS011;5317;49.048;8.468;2023-06-26T12:34:53;3.83;;;3.30;;
10537;SDS011;5317;49.048;8.468;2023-06-26T12:37:23;3.70;;;3.30;;
10537;SDS011;5317;49.048;8.468;2023-06-26T12:39:50;3.93;;;3.43;;
10537;SDS011;5317;49.048;8.468;2023-06-26T12:42:24;3.67;;;3.30;;
10537;SDS011;5317;49.048;8.468;2023-06-26T12:44:54;4.77;;;3.03;;
10537;SDS011;5317;49.048;8.468;2023-06-26T12:47:25;4.67;;;3.80;;
10537;SDS011;5317;49.048;8.468;2023-06-26T12:49:56;6.50;;;3.63;;
10537;SDS011;5317;49.048;8.468;2023-06-26T12:52:23;3.40;;;3.10;;
10537;SDS011;5317;49.048;8.468;2023-06-26T12:54:53;4.00;;;3.60;;
10537;SDS011;5317;49.048;8.468;2023-06-26T12:57:21;4.77;;;3.03;;
10537;SDS011;5317;49.048;8.468;2023-06-26T12:59:54;4.20;;;3.60;;
10537;SDS011;5317;49.048;8.468;2023-06-26T13:02:21;3.97;;;3.50;;
10537;SDS011;5317;49.048;8.468;2023-06-26T13:04:57;5.63;;;3.43;;
10537;SDS011;5317;49.048;8.468;2023-06-26T13:07:23;3.63;;;3.23;;
10537;SDS011;5317;49.048;8.468;2023-06-26T13:09:58;4.37;;;3.60;;
10537;SDS011;5317;49.048;8.468;2023-06-26T13:12:28;3.93;;;3.23;;
10537;SDS011;5317;49.048;8.468;2023-06-26T13:14:55;3.43;;;3.13;;
10537;SDS011;5317;49.048;8.468;2023-06-26T13:17:22;7.90;;;3.33;;
10537;SDS011;5317;49.048;8.468;2023-06-26T13:19:50;5.23;;;3.50;;
10537;SDS011;5317;49.048;8.468;2023-06-26T13:22:18;4.63;;;3.50;;
10537;SDS011;5317;49.048;8.468;2023-06-26T13:24:45;5.23;;;3.50;;
10537;SDS011;5317;49.048;8.468;2023-06-26T13:27:12;3.60;;;3.30;;
10537;SDS011;5317;49.048;8.468;2023-06-26T13:29:40;4.67;;;3.80;;
10537;SDS011;5317;49.048;8.468;2023-06-26T13:32:07;3.80;;;3.40;;
10537;SDS011;5317;49.048;8.468;2023-06-26T13:34:34;4.37;;;3.97;;
10537;SDS011;5317;49.048;8.468;2023-06-26T13:37:08;8.77;;;4.30;;
10537;SDS011;5317;49.048;8.468;2023-06-26T13:39:36;5.20;;;4.10;;
10537;SDS011;5317;49.048;8.468;2023-06-26T13:42:06;4.40;;;4.00;;
10537;SDS011;5317;49.048;8.468;2023-06-26T13:44:33;3.93;;;3.63;;
10537;SDS011;5317;49.048;8.468;2023-06-26T13:47:00;5.00;;;3.93;;
10537;SDS011;5317;49.048;8.468;2023-06-26T13:49:29;5.17;;;4.67;;
10537;SDS011;5317;49.048;8.468;2023-06-26T13:51:56;6.17;;;4.60;;
10537;SDS011;5317;49.048;8.468;2023-06-26T13:54:24;6.90;;;5.17;;
10537;SDS011;5317;49.048;8.468;2023-06-26T13:56:53;6.97;;;5.37;;
10537;SDS011;5317;49.048;8.468;2023-06-26T13:59:22;6.33;;;5.63;;
10537;SDS011;5317;49.048;8.468;2023-06-26T14:01:53;6.80;;;5.70;;
10537;SDS011;5317;49.048;8.468;2023-06-26T14:04:20;6.60;;;6.00;;
10537;SDS011;5317;49.048;8.468;2023-06-26T14:06:47;6.40;;;5.43;;
10537;SDS011;5317;49.048;8.468;2023-06-26T14:09:14;7.20;;;5.57;;
10537;SDS011;5317;49.048;8.468;2023-06-26T14:11:45;7.10;;;5.57;;
10537;SDS011;5317;49.048;8.468;2023-06-26T14:14:12;5.70;;;5.20;;
10537;SDS011;5317;49.048;8.468;2023-06-26T14:16:43;6.13;;;5.57;;
10537;SDS011;5317;49.048;8.468;2023-06-26T14:19:10;6.30;;;5.70;;
10537;SDS011;5317;49.048;8.468;2023-06-26T14:21:39;8.07;;;5.93;;
10537;SDS011;5317;49.048;8.468;2023-06-26T14:24:06;6.90;;;6.17;;
10537;SDS011;5317;49.048;8.468;2023-06-26T14:26:33;7.80;;;7.00;;
10537;SDS011;5317;49.048;8.468;2023-06-26T14:29:07;8.03;;;5.87;;
10537;SDS011;5317;49.048;8.468;2023-06-26T14:31:40;7.10;;;6.17;;
10537;SDS011;5317;49.048;8.468;2023-06-26T14:34:07;6.30;;;5.70;;
10537;SDS011;5317;49.048;8.468;2023-06-26T14:36:40;7.47;;;5.67;;
10537;SDS011;5317;49.048;8.468;2023-06-26T14:39:08;5.80;;;5.07;;
10537;SDS011;5317;49.048;8.468;2023-06-26T14:41:37;5.87;;;5.27;;
10537;SDS011;5317;49.048;8.468;2023-06-26T14:44:04;4.87;;;4.37;;
10537;SDS011;5317;49.048;8.468;2023-06-26T14:46:42;4.73;;;4.17;;
10537;SDS011;5317;49.048;8.468;2023-06-26T14:49:09;5.50;;;4.43;;
10537;SDS011;5317;49.048;8.468;2023-06-26T14:51:38;4.63;;;4.13;;
10537;SDS011;5317;49.048;8.468;2023-06-26T14:54:05;5.53;;;4.07;;
10537;SDS011;5317;49.048;8.468;2023-06-26T14:56:33;5.33;;;3.83;;
10537;SDS011;5317;49.048;8.468;2023-06-26T14:59:02;5.77;;;3.90;;
10537;SDS011;5317;49.048;8.468;2023-06-26T15:01:29;4.83;;;3.47;;
10537;SDS011;5317;49.048;8.468;2023-06-26T15:03:57;5.03;;;3.47;;
10537;SDS011;5317;49.048;8.468;2023-06-26T15:06:26;4.87;;;3.33;;
10537;SDS011;5317;49.048;8.468;2023-06-26T15:08:53;4.00;;;2.23;;
10537;SDS011;5317;49.048;8.468;2023-06-26T15:11:20;2.80;;;2.27;;
10537;SDS011;5317;49.048;8.468;2023-06-26T15:13:49;2.60;;;2.40;;
10537;SDS011;5317;49.048;8.468;2023-06-26T15:16:16;2.93;;;2.13;;